Terminal Aerodrome Forecast
Issued by NWS

Current Version | Previous Version | Text Only | Print | Product List | Glossary On
Versions: 1 2 3 4 5 6 7 8 9 10 11 12
074
FTUS44 KEPZ 111137
TAFLRU
TAF
KLRU 111137Z 1112/1212 VRB05KT P6SM SCT150 BKN250
     FM112000 08007KT P6SM SCT120 BKN250=

USA.gov is the U.S. government's official web portal to all federal, state and local government web resources and services.